Time;durP1;ratioP1;P1;durP2;ratioP2;P2;SDS_P1;SDS_P2;PMS_P1;PMS_P2;Temp;Humidity;BMP_temperature;BMP_pressure;BME280_temperature;BME280_humidity;BME280_pressure;Samples;Min_cycle;Max_cycle;Signal;HPM_P1;HPM_P2
2023/09/17 00:00:05;;;;;;;18.27;9.90;;;;;;;25.01;100.00;100927.59;4990770;28;20515;-45
2023/09/17 00:02:32;;;;;;;18.83;10.88;;;;;;;25.02;100.00;100924.25;4991254;28;20156;-42
2023/09/17 00:04:59;;;;;;;21.80;11.20;;;;;;;25.02;100.00;100932.78;4993277;28;20113;-44
2023/09/17 00:07:25;;;;;;;17.08;9.77;;;;;;;24.98;100.00;100928.63;4989192;28;20046;-47
2023/09/17 00:09:52;;;;;;;19.77;10.85;;;;;;;24.97;100.00;100927.84;4987745;28;20062;-42
2023/09/17 00:12:19;;;;;;;17.17;9.60;;;;;;;24.98;100.00;100932.25;4990485;28;20050;-44
2023/09/17 00:14:46;;;;;;;18.27;10.63;;;;;;;25.00;100.00;100928.91;4991405;28;20101;-42
2023/09/17 00:17:12;;;;;;;17.95;10.07;;;;;;;24.96;100.00;100917.75;4992661;28;20109;-45
2023/09/17 00:19:39;;;;;;;16.63;9.70;;;;;;;24.95;100.00;100927.59;4988100;28;20085;-43
2023/09/17 00:22:11;;;;;;;17.63;9.82;;;;;;;24.88;100.00;100933.78;4994717;28;20170;-45
2023/09/17 00:24:38;;;;;;;25.65;10.35;;;;;;;24.84;100.00;100921.06;5001691;28;20053;-47
2023/09/17 00:27:04;;;;;;;17.02;9.57;;;;;;;24.86;100.00;100930.66;5010796;28;20073;-45
2023/09/17 00:29:31;;;;;;;17.83;9.93;;;;;;;24.88;100.00;100930.94;5010152;28;20504;-47
2023/09/17 00:31:57;;;;;;;18.98;10.98;;;;;;;24.89;100.00;100934.53;5005434;28;20116;-46
2023/09/17 00:34:24;;;;;;;18.42;9.73;;;;;;;24.87;100.00;100934.28;5000467;28;20492;-46
2023/09/17 00:36:51;;;;;;;21.30;10.10;;;;;;;24.82;100.00;100940.69;4993219;28;20484;-45
2023/09/17 00:39:18;;;;;;;17.95;11.00;;;;;;;24.84;100.00;100933.22;4990254;28;20128;-48
2023/09/17 00:41:44;;;;;;;15.85;8.88;;;;;;;24.88;100.00;100933.00;4991165;28;20082;-49
2023/09/17 00:44:11;;;;;;;18.98;9.65;;;;;;;24.91;100.00;100929.13;4991221;28;20077;-49
2023/09/17 00:46:38;;;;;;;16.98;9.65;;;;;;;24.81;100.00;100931.41;4990861;28;20050;-47
2023/09/17 00:49:12;;;;;;;19.50;10.52;;;;;;;24.81;100.00;100919.22;4990903;28;20104;-47
2023/09/17 00:51:43;;;;;;;17.70;9.63;;;;;;;24.82;100.00;100923.63;4993386;28;20050;-44
2023/09/17 00:54:12;;;;;;;17.08;10.40;;;;;;;24.81;100.00;100916.38;4990782;28;20145;-47
2023/09/17 00:56:39;;;;;;;17.40;10.00;;;;;;;24.78;100.00;100915.34;4990739;28;20113;-46
2023/09/17 00:59:06;;;;;;;18.13;9.40;;;;;;;24.80;100.00;100909.91;4989529;28;20046;-48
2023/09/17 01:01:33;;;;;;;18.17;9.70;;;;;;;24.85;100.00;100912.06;5001355;28;20503;-48
2023/09/17 01:04:00;;;;;;;18.65;9.75;;;;;;;24.83;100.00;100900.38;5010427;28;20049;-47
2023/09/17 01:06:28;;;;;;;16.83;8.88;;;;;;;24.89;100.00;100908.94;5006579;28;20428;-45
2023/09/17 01:08:54;;;;;;;18.00;9.73;;;;;;;24.86;100.00;100913.59;4995970;28;20042;-49
2023/09/17 01:11:21;;;;;;;18.42;9.43;;;;;;;24.84;100.00;100921.06;4990348;28;20057;-45
2023/09/17 01:14:00;;;;;;;18.02;8.95;;;;;;;24.86;100.00;100924.19;4989981;28;20050;-49
2023/09/17 01:16:28;;;;;;;17.45;9.63;;;;;;;24.91;100.00;100923.44;4990475;28;20100;-49
2023/09/17 01:18:55;;;;;;;17.30;9.23;;;;;;;24.86;100.00;100916.44;4989669;28;20606;-46
2023/09/17 01:21:32;;;;;;;17.65;9.10;;;;;;;24.79;100.00;100919.75;4990301;28;20050;-47
2023/09/17 01:24:21;;;;;;;17.90;9.00;;;;;;;24.83;100.00;100920.28;4991813;28;20128;-48
2023/09/17 01:26:59;;;;;;;16.35;9.20;;;;;;;24.84;100.00;100915.38;4989750;28;20491;-47
2023/09/17 01:29:30;;;;;;;18.38;9.02;;;;;;;24.84;100.00;100927.53;4989347;28;20528;-49
2023/09/17 01:31:57;;;;;;;17.52;9.07;;;;;;;24.78;100.00;100926.72;4984215;28;20074;-48
2023/09/17 01:34:24;;;;;;;16.95;8.95;;;;;;;24.75;100.00;100947.66;4989742;28;20081;-47
2023/09/17 01:36:54;;;;;;;14.75;8.38;;;;;;;24.81;100.00;100959.03;4989347;28;20054;-47
2023/09/17 01:39:26;;;;;;;17.23;9.15;;;;;;;24.83;100.00;100962.91;4987544;28;20093;-51
2023/09/17 01:41:55;;;;;;;18.20;9.13;;;;;;;24.81;100.00;100967.56;4995352;28;20125;-48
2023/09/17 01:44:24;;;;;;;20.25;8.45;;;;;;;24.78;100.00;100969.38;4989602;28;20058;-46
2023/09/17 01:46:51;;;;;;;17.08;9.48;;;;;;;24.77;100.00;100962.13;4989098;28;20054;-48
2023/09/17 01:49:18;;;;;;;15.45;8.63;;;;;;;24.77;100.00;100972.72;4991459;28;20045;-49
2023/09/17 01:51:46;;;;;;;15.80;8.32;;;;;;;24.78;100.00;100975.06;4989743;28;20054;-49
2023/09/17 01:54:14;;;;;;;14.60;8.40;;;;;;;24.81;100.00;100970.41;4989438;28;20521;-49
2023/09/17 01:56:42;;;;;;;15.98;8.88;;;;;;;24.79;100.00;100961.59;4990893;28;20071;-48
2023/09/17 01:59:08;;;;;;;16.17;9.05;;;;;;;24.74;100.00;100957.44;4988598;28;20058;-47
2023/09/17 02:01:35;;;;;;;16.60;8.55;;;;;;;24.76;100.00;100949.19;4993814;28;20141;-46
2023/09/17 02:04:02;;;;;;;14.65;8.05;;;;;;;24.80;100.00;100943.28;4984574;28;20077;-46
2023/09/17 02:06:29;;;;;;;16.02;8.75;;;;;;;24.78;100.00;100938.09;4987924;28;20054;-48
2023/09/17 02:08:55;;;;;;;15.90;8.55;;;;;;;24.82;100.00;100932.16;4989032;28;20053;-49
2023/09/17 02:11:22;;;;;;;16.23;8.45;;;;;;;24.83;100.00;100942.22;4989107;28;20133;-47
2023/09/17 02:13:48;;;;;;;14.10;8.05;;;;;;;24.84;100.00;100946.66;4989115;28;20568;-46
2023/09/17 02:16:15;;;;;;;17.15;8.90;;;;;;;24.71;100.00;100938.59;4988376;28;20065;-49
2023/09/17 02:18:42;;;;;;;15.93;8.30;;;;;;;24.69;100.00;100934.69;4988754;28;20050;-49
2023/09/17 02:21:08;;;;;;;16.92;8.60;;;;;;;24.72;100.00;100931.59;4993583;28;20137;-46
2023/09/17 02:23:35;;;;;;;15.60;8.27;;;;;;;24.77;100.00;100925.16;4989653;28;20080;-46
2023/09/17 02:26:01;;;;;;;15.55;8.30;;;;;;;24.74;100.00;100931.09;4988809;28;20070;-45
2023/09/17 02:28:28;;;;;;;16.63;8.77;;;;;;;24.75;100.00;100929.81;4988693;28;20050;-50
2023/09/17 02:30:55;;;;;;;14.07;7.38;;;;;;;24.73;100.00;100921.78;4992337;28;20057;-48
2023/09/17 02:33:22;;;;;;;19.02;7.97;;;;;;;24.75;100.00;100915.59;4988984;28;20053;-46
2023/09/17 02:35:50;;;;;;;15.57;8.10;;;;;;;24.74;100.00;100906.28;4988621;28;20054;-47
2023/09/17 02:38:17;;;;;;;14.13;7.75;;;;;;;24.75;100.00;100910.69;4988203;28;20042;-45
2023/09/17 02:40:43;;;;;;;14.98;8.13;;;;;;;24.75;100.00;100907.84;4989065;28;20078;-49
2023/09/17 02:43:10;;;;;;;14.30;7.82;;;;;;;24.74;100.00;100909.13;4989314;28;20137;-47
2023/09/17 02:45:36;;;;;;;15.55;7.88;;;;;;;24.72;100.00;100897.50;4998467;28;20130;-46
2023/09/17 02:48:03;;;;;;;15.20;8.02;;;;;;;24.75;100.00;100896.47;4988633;28;20191;-48
2023/09/17 02:50:29;;;;;;;14.57;8.00;;;;;;;24.70;100.00;100887.94;4988332;28;20057;-50
2023/09/17 02:52:56;;;;;;;16.95;9.07;;;;;;;24.74;100.00;100879.94;4988263;28;20193;-46
2023/09/17 02:55:23;;;;;;;14.25;7.65;;;;;;;24.69;100.00;100875.78;4988750;28;20108;-46
2023/09/17 02:57:50;;;;;;;13.82;7.40;;;;;;;24.74;100.00;100869.31;4988625;28;20050;-49
2023/09/17 03:00:17;;;;;;;14.80;7.45;;;;;;;24.73;100.00;100867.00;4989336;28;20055;-45
2023/09/17 03:02:47;;;;;;;13.50;7.35;;;;;;;24.75;100.00;100873.72;5004315;28;20046;-50
2023/09/17 03:05:14;;;;;;;13.65;7.20;;;;;;;24.69;100.00;100874.97;4989946;28;20549;-47
2023/09/17 03:07:41;;;;;;;16.05;8.43;;;;;;;24.66;100.00;100876.78;4988042;28;20191;-45
2023/09/17 03:10:11;;;;;;;16.45;7.45;;;;;;;24.66;100.00;100871.09;4988662;28;20152;-49
2023/09/17 03:12:38;;;;;;;13.32;7.25;;;;;;;24.71;100.00;100867.53;4988903;28;20112;-46
2023/09/17 03:15:08;;;;;;;14.77;7.85;;;;;;;24.67;100.00;100874.72;4988781;28;20056;-46
2023/09/17 03:17:37;;;;;;;14.10;7.70;;;;;;;24.65;100.00;100865.94;4987891;28;20054;-45
2023/09/17 03:20:13;;;;;;;14.07;7.63;;;;;;;24.70;100.00;100868.03;4989511;28;20592;-46
2023/09/17 03:22:41;;;;;;;13.18;7.18;;;;;;;24.72;100.00;100859.75;5000455;28;20054;-48
2023/09/17 03:25:07;;;;;;;14.02;7.90;;;;;;;24.73;100.00;100870.59;4992188;28;20055;-46
2023/09/17 03:27:34;;;;;;;13.27;7.25;;;;;;;24.71;100.00;100869.56;4991424;28;20487;-49
2023/09/17 03:30:05;;;;;;;14.00;7.55;;;;;;;24.73;100.00;100876.28;4992240;28;20050;-46
2023/09/17 03:32:32;;;;;;;14.77;7.63;;;;;;;24.72;100.00;100877.59;4991871;28;20057;-46
2023/09/17 03:34:58;;;;;;;14.55;7.05;;;;;;;24.67;100.00;100875.50;4992447;28;20047;-48
2023/09/17 03:37:25;;;;;;;13.63;6.97;;;;;;;24.72;100.00;100869.06;4991876;28;20078;-47
2023/09/17 03:40:12;;;;;;;14.02;7.90;;;;;;;24.71;100.00;100878.09;4991076;28;20062;-49
2023/09/17 03:42:39;;;;;;;14.63;7.47;;;;;;;24.71;100.00;100867.53;4991904;28;20472;-47
2023/09/17 03:45:09;;;;;;;13.27;7.05;;;;;;;24.72;100.00;100871.13;4992368;28;20088;-47
2023/09/17 03:47:37;;;;;;;13.35;6.93;;;;;;;24.68;100.00;100865.69;4991433;28;20619;-46
2023/09/17 03:50:04;;;;;;;13.93;7.45;;;;;;;24.68;100.00;100871.38;4991969;28;20089;-45
2023/09/17 03:52:33;;;;;;;14.02;6.63;;;;;;;24.65;100.00;100874.47;4992149;28;20086;-47
2023/09/17 03:55:01;;;;;;;13.52;6.70;;;;;;;24.70;100.00;100879.41;4993761;28;20508;-46
2023/09/17 03:57:29;;;;;;;13.23;7.05;;;;;;;24.65;100.00;100863.88;4991563;28;20141;-48
2023/09/17 03:59:55;;;;;;;14.90;7.53;;;;;;;24.64;100.00;100853.00;4991717;28;20043;-47
2023/09/17 04:02:22;;;;;;;13.65;7.22;;;;;;;24.61;100.00;100857.66;5009101;28;20140;-46
2023/09/17 04:04:49;;;;;;;13.10;7.45;;;;;;;24.63;100.00;100855.06;5011157;28;20459;-49
2023/09/17 04:07:15;;;;;;;15.00;6.93;;;;;;;24.66;100.00;100859.72;5005026;28;20053;-48
2023/09/17 04:09:42;;;;;;;14.32;7.38;;;;;;;24.71;100.00;100853.31;4990614;28;20101;-45
2023/09/17 04:12:09;;;;;;;14.02;6.97;;;;;;;24.69;100.00;100861.56;4989562;28;20086;-48
2023/09/17 04:14:35;;;;;;;14.15;7.55;;;;;;;24.67;100.00;100854.84;4991317;28;20132;-47
2023/09/17 04:17:02;;;;;;;13.70;6.82;;;;;;;24.63;100.00;100849.38;4990553;28;20085;-46
2023/09/17 04:19:29;;;;;;;12.93;6.78;;;;;;;24.65;100.00;100852.50;4994732;28;20046;-49
2023/09/17 04:21:56;;;;;;;14.15;6.93;;;;;;;24.68;100.00;100848.63;4990985;28;20046;-47
2023/09/17 04:24:22;;;;;;;12.35;6.65;;;;;;;24.68;100.00;100848.63;4990908;28;20516;-50
2023/09/17 04:26:49;;;;;;;13.88;6.68;;;;;;;24.63;100.00;100843.69;4993350;28;20649;-48
2023/09/17 04:29:15;;;;;;;12.35;6.57;;;;;;;24.67;100.00;100843.47;4990800;28;20065;-49
2023/09/17 04:31:42;;;;;;;11.60;6.63;;;;;;;24.63;100.00;100843.69;5002656;28;20413;-50
2023/09/17 04:34:08;;;;;;;13.23;7.13;;;;;;;24.62;100.00;100859.22;5006309;28;20397;-48
2023/09/17 04:36:35;;;;;;;11.73;6.50;;;;;;;24.68;100.00;100848.63;4990995;28;20571;-47
2023/09/17 04:39:02;;;;;;;12.50;7.00;;;;;;;24.62;100.00;100849.91;4990185;28;20128;-48
2023/09/17 04:41:29;;;;;;;11.05;6.15;;;;;;;24.64;100.00;100850.97;4993123;28;20138;-47
2023/09/17 04:43:55;;;;;;;11.85;6.35;;;;;;;24.61;100.00;100851.97;4990579;28;20134;-47
2023/09/17 04:46:22;;;;;;;13.23;6.90;;;;;;;24.61;100.00;100849.13;4990738;28;20046;-49
2023/09/17 04:48:49;;;;;;;13.75;6.63;;;;;;;24.65;100.00;100846.03;4990090;28;20039;-48
2023/09/17 04:51:16;;;;;;;12.20;6.10;;;;;;;24.64;100.00;100853.00;4990915;28;20054;-47
2023/09/17 04:53:43;;;;;;;12.38;6.72;;;;;;;24.64;100.00;100839.59;4999311;28;20054;-49
2023/09/17 04:56:10;;;;;;;12.98;6.80;;;;;;;24.61;100.00;100849.13;4991509;28;20513;-47
2023/09/17 04:58:36;;;;;;;12.15;6.63;;;;;;;24.62;100.00;100850.69;4989535;28;20129;-48
2023/09/17 05:01:03;;;;;;;11.00;6.00;;;;;;;24.63;100.00;100857.16;4997241;28;20149;-48
2023/09/17 05:03:30;;;;;;;11.80;6.22;;;;;;;24.61;100.00;100857.66;4993659;28;20058;-48
2023/09/17 05:05:56;;;;;;;12.82;6.45;;;;;;;24.60;100.00;100853.25;4990363;28;20061;-46
2023/09/17 05:08:24;;;;;;;11.52;6.25;;;;;;;24.63;100.00;100848.63;4990311;28;20116;-46
2023/09/17 05:10:50;;;;;;;10.48;5.97;;;;;;;24.63;100.00;100849.38;4989998;28;20141;-48
2023/09/17 05:13:17;;;;;;;12.40;6.45;;;;;;;24.59;100.00;100848.84;4990243;28;20061;-46
2023/09/17 05:15:44;;;;;;;11.23;5.88;;;;;;;24.61;100.00;100854.81;4989999;28;20069;-46
2023/09/17 05:18:10;;;;;;;13.32;6.57;;;;;;;24.61;100.00;100854.81;4990210;28;20054;-47
2023/09/17 05:20:40;;;;;;;12.65;6.45;;;;;;;24.56;100.00;100852.72;4990243;28;20519;-49
2023/09/17 05:23:07;;;;;;;12.52;6.25;;;;;;;24.56;100.00;100849.88;4990302;28;20092;-49
2023/09/17 05:25:34;;;;;;;15.98;6.38;;;;;;;24.59;100.00;100848.84;4989556;28;20129;-49
2023/09/17 05:28:03;;;;;;;11.73;6.43;;;;;;;24.65;100.00;100851.72;4991285;28;20073;-48
2023/09/17 05:30:30;;;;;;;11.98;5.95;;;;;;;24.57;100.00;100854.25;4995720;28;20704;-47
2023/09/17 05:32:56;;;;;;;11.45;5.40;;;;;;;24.60;100.00;100856.09;4985340;28;20129;-47
2023/09/17 05:35:23;;;;;;;12.13;5.97;;;;;;;24.72;100.00;100860.53;4987692;28;20058;-47
2023/09/17 05:37:49;;;;;;;12.05;6.13;;;;;;;24.64;100.00;100859.50;4987518;28;20864;-49
2023/09/17 05:40:16;;;;;;;13.38;6.70;;;;;;;24.63;100.00;100866.44;4990480;28;20133;-45
2023/09/17 05:42:45;;;;;;;10.07;5.68;;;;;;;24.59;100.00;100859.44;4990612;28;20058;-49
2023/09/17 05:45:12;;;;;;;11.98;6.30;;;;;;;24.59;100.00;100860.22;4989806;28;20081;-47
2023/09/17 05:47:40;;;;;;;11.65;5.93;;;;;;;24.64;100.00;100862.31;4989563;28;20123;-46
2023/09/17 05:50:17;;;;;;;11.02;5.80;;;;;;;24.58;100.00;100860.75;4989656;28;20497;-46
2023/09/17 05:52:43;;;;;;;11.63;6.13;;;;;;;24.58;100.00;100864.38;4990060;28;20505;-49
2023/09/17 05:55:10;;;;;;;10.40;5.78;;;;;;;24.60;100.00;100861.00;4990729;28;20057;-49
2023/09/17 05:57:36;;;;;;;12.20;6.32;;;;;;;24.61;100.00;100856.88;4988394;28;20082;-46
2023/09/17 06:00:04;;;;;;;11.13;5.93;;;;;;;24.62;100.00;100852.72;4991883;28;20054;-47
2023/09/17 06:02:31;;;;;;;11.48;6.05;;;;;;;24.54;100.00;100863.84;4990522;28;20050;-47
2023/09/17 06:04:57;;;;;;;11.52;5.85;;;;;;;24.56;100.00;100860.50;4989396;28;20042;-48
2023/09/17 06:07:26;;;;;;;10.35;5.22;;;;;;;24.57;100.00;100859.19;4988970;28;20058;-49
2023/09/17 06:09:52;;;;;;;10.85;5.95;;;;;;;24.57;100.00;100854.25;4992464;28;20057;-48
2023/09/17 06:12:19;;;;;;;11.88;5.50;;;;;;;24.61;100.00;100862.56;4989632;28;20559;-49
2023/09/17 06:14:46;;;;;;;12.00;5.97;;;;;;;24.61;100.00;100854.81;4991844;28;20054;-46
2023/09/17 06:17:13;;;;;;;11.32;5.50;;;;;;;24.62;100.00;100856.38;4988648;28;20062;-47
2023/09/17 06:19:39;;;;;;;15.23;8.40;;;;;;;24.59;100.00;100856.59;4991445;28;20081;-43
2023/09/17 06:22:07;;;;;;;16.15;8.93;;;;;;;24.60;100.00;100853.25;4992471;28;20078;-46
2023/09/17 06:24:33;;;;;;;16.75;8.95;;;;;;;24.57;100.00;100857.09;4992550;28;20058;-43
2023/09/17 06:27:00;;;;;;;15.55;8.35;;;;;;;24.56;100.00;100852.72;4994126;28;20066;-45
2023/09/17 06:29:26;;;;;;;18.05;10.18;;;;;;;24.60;100.00;100855.34;5009778;28;20576;-43
2023/09/17 06:31:53;;;;;;;17.73;9.55;;;;;;;24.52;100.00;100860.72;4989462;28;20107;-44
2023/09/17 06:34:19;;;;;;;16.75;9.15;;;;;;;24.53;100.00;100847.28;5002965;28;20769;-44
2023/09/17 06:36:47;;;;;;;17.38;9.55;;;;;;;24.59;100.00;100848.06;5007744;28;20116;-47
2023/09/17 06:39:13;;;;;;;16.85;9.55;;;;;;;24.49;100.00;100847.53;4999413;28;20186;-46
2023/09/17 06:41:40;;;;;;;16.92;9.40;;;;;;;24.50;100.00;100849.06;4995881;28;20070;-46
2023/09/17 06:44:08;;;;;;;18.45;9.82;;;;;;;24.51;100.00;100847.81;5000686;28;20771;-44
2023/09/17 06:46:35;;;;;;;16.20;9.10;;;;;;;24.48;100.00;100846.75;4997340;28;20057;-43
2023/09/17 06:49:02;;;;;;;17.88;9.85;;;;;;;24.52;100.00;100837.97;4989650;28;20556;-44
2023/09/17 06:51:28;;;;;;;18.42;9.07;;;;;;;24.47;100.00;100835.13;4991837;28;20086;-45
2023/09/17 06:53:55;;;;;;;20.05;10.75;;;;;;;24.62;100.00;100835.69;5014121;28;20081;-47
2023/09/17 06:56:24;;;;;;;20.98;12.32;;;;;;;24.61;100.00;100840.59;5009736;28;20054;-44
2023/09/17 06:58:51;;;;;;;20.42;10.73;;;;;;;24.46;100.00;100828.66;4996450;28;20113;-45
2023/09/17 07:01:18;;;;;;;18.95;11.90;;;;;;;24.58;100.00;100833.09;4994534;28;20058;-44
2023/09/17 07:03:45;;;;;;;18.50;10.82;;;;;;;24.46;100.00;100830.75;4992425;28;20057;-47
2023/09/17 07:06:12;;;;;;;17.35;9.82;;;;;;;24.49;100.00;100830.47;4994354;28;20054;-47
2023/09/17 07:08:38;;;;;;;19.98;10.02;;;;;;;24.48;100.00;100834.63;4994593;28;20046;-42
2023/09/17 07:11:05;;;;;;;17.55;9.13;;;;;;;24.50;100.00;100828.41;4994454;28;20105;-43
2023/09/17 07:13:31;;;;;;;19.27;9.70;;;;;;;24.47;100.00;100835.91;4994677;28;20050;-44
2023/09/17 07:15:58;;;;;;;21.70;9.65;;;;;;;24.48;100.00;100836.66;4994121;28;20099;-43
2023/09/17 07:18:26;;;;;;;22.25;11.50;;;;;;;24.45;100.00;100835.63;4993515;28;20046;-46
2023/09/17 07:20:52;;;;;;;19.77;9.57;;;;;;;24.47;100.00;100837.97;4999220;28;20053;-45
2023/09/17 07:23:19;;;;;;;23.98;11.02;;;;;;;24.54;100.00;100829.72;4994043;28;20129;-46
2023/09/17 07:25:46;;;;;;;19.85;9.88;;;;;;;24.42;100.00;100837.44;4993764;28;20054;-45
2023/09/17 07:28:13;;;;;;;20.60;10.95;;;;;;;24.44;100.00;100836.94;4990516;28;20053;-44
2023/09/17 07:30:39;;;;;;;23.90;13.02;;;;;;;24.50;100.00;100828.41;5007669;28;20049;-43
2023/09/17 07:33:06;;;;;;;23.90;13.32;;;;;;;24.46;100.00;100831.50;5013548;28;20057;-44
2023/09/17 07:35:34;;;;;;;20.73;11.30;;;;;;;24.44;100.00;100829.16;5010116;28;20058;-44
2023/09/17 07:38:01;;;;;;;21.25;12.63;;;;;;;24.46;100.00;100842.09;4993680;28;20054;-44
2023/09/17 07:40:27;;;;;;;20.95;12.57;;;;;;;24.52;100.00;100840.03;4995043;28;20065;-44
2023/09/17 07:42:54;;;;;;;21.00;12.90;;;;;;;24.42;100.00;100828.13;4993112;28;20501;-45
2023/09/17 07:45:20;;;;;;;21.67;12.80;;;;;;;24.36;100.00;100830.94;4994588;28;20142;-46
2023/09/17 07:47:47;;;;;;;21.98;13.48;;;;;;;24.48;100.00;100834.63;4993366;28;20069;-44
2023/09/17 07:50:15;;;;;;;22.60;14.45;;;;;;;24.56;100.00;100826.38;4993905;28;20531;-46
2023/09/17 07:52:42;;;;;;;22.42;13.88;;;;;;;24.52;100.00;100831.50;4992452;28;20690;-46
2023/09/17 07:55:09;;;;;;;21.75;13.32;;;;;;;24.48;100.00;100833.81;4995549;28;20050;-48
2023/09/17 07:57:35;;;;;;;20.45;13.23;;;;;;;24.47;100.00;100844.44;4991584;28;20073;-44
2023/09/17 08:00:04;;;;;;;21.05;13.07;;;;;;;24.38;100.00;100841.81;4996266;28;20073;-42
2023/09/17 08:02:30;;;;;;;20.65;10.65;;;;;;;24.39;100.00;100846.97;4993482;28;20444;-44
2023/09/17 08:04:57;;;;;;;28.48;11.50;;;;;;;24.43;100.00;100846.72;4992161;28;20519;-46
2023/09/17 08:07:24;;;;;;;21.63;12.05;;;;;;;24.39;100.00;100841.28;4990715;28;20058;-42
2023/09/17 08:09:50;;;;;;;20.80;11.18;;;;;;;24.44;100.00;100837.69;4992057;28;20046;-45
2023/09/17 08:12:17;;;;;;;20.75;11.85;;;;;;;24.37;100.00;100843.88;4992145;28;20536;-44
2023/09/17 08:14:46;;;;;;;21.10;10.85;;;;;;;24.39;100.00;100846.19;4998817;28;20078;-49
2023/09/17 08:17:13;;;;;;;17.77;9.75;;;;;;;24.38;100.00;100841.81;4997817;28;20053;-49
2023/09/17 08:19:40;;;;;;;17.50;9.75;;;;;;;24.36;100.00;100839.47;4991073;28;20046;-46
2023/09/17 08:22:07;;;;;;;20.17;10.35;;;;;;;24.39;100.00;100846.19;4989825;28;20051;-46
2023/09/17 08:24:34;;;;;;;18.90;10.95;;;;;;;24.38;100.00;100847.50;4991266;28;20054;-49
2023/09/17 08:27:00;;;;;;;18.73;10.20;;;;;;;24.39;100.00;100846.19;4990712;28;20085;-47
2023/09/17 08:29:27;;;;;;;23.38;12.00;;;;;;;24.36;100.00;100839.47;4996663;28;20054;-48
2023/09/17 08:31:53;;;;;;;23.10;13.18;;;;;;;24.38;100.00;100844.66;4990689;28;20688;-47
2023/09/17 08:34:20;;;;;;;21.02;12.00;;;;;;;24.36;100.00;100848.00;4993612;28;20123;-46
2023/09/17 08:36:48;;;;;;;23.77;11.63;;;;;;;24.36;100.00;100847.22;4983819;28;20049;-50
2023/09/17 08:39:14;;;;;;;18.25;9.30;;;;;;;24.39;100.00;100843.34;4989892;28;20046;-49
2023/09/17 08:41:42;;;;;;;18.92;10.20;;;;;;;24.44;100.00;100845.44;4991176;28;20054;-48
2023/09/17 08:44:10;;;;;;;19.70;9.00;;;;;;;24.39;100.00;100846.19;4992333;28;20076;-47
2023/09/17 08:46:38;;;;;;;17.02;8.30;;;;;;;24.40;100.00;100848.53;4991003;28;20101;-47
2023/09/17 08:49:05;;;;;;;16.00;8.23;;;;;;;24.40;100.00;100839.22;4989183;28;20509;-47
2023/09/17 08:51:37;;;;;;;17.65;7.50;;;;;;;24.40;100.00;100847.75;4990854;28;20425;-46
2023/09/17 08:54:12;;;;;;;16.48;7.47;;;;;;;24.51;100.00;100853.50;4990504;28;20559;-46
2023/09/17 08:56:42;;;;;;;15.07;7.03;;;;;;;24.51;100.00;100844.97;5004599;28;20073;-50
2023/09/17 08:59:13;;;;;;;14.43;7.25;;;;;;;24.51;100.00;100847.03;4999305;28;20058;-46
2023/09/17 09:01:44;;;;;;;12.95;6.45;;;;;;;24.51;100.00;100839.28;4994600;28;20050;-46
2023/09/17 09:04:12;;;;;;;12.65;6.53;;;;;;;24.51;100.00;100841.34;4993048;28;20066;-51
2023/09/17 09:06:40;;;;;;;15.13;6.90;;;;;;;24.55;100.00;100836.97;4990639;28;20140;-47
2023/09/17 09:09:08;;;;;;;13.10;6.63;;;;;;;24.52;100.00;100842.88;4990421;28;20092;-46
2023/09/17 09:11:35;;;;;;;12.70;6.40;;;;;;;24.48;100.00;100846.75;4990561;28;20105;-47
2023/09/17 09:14:06;;;;;;;13.95;6.03;;;;;;;24.51;100.00;100844.19;4990334;28;20048;-47
2023/09/17 09:16:36;;;;;;;12.65;5.65;;;;;;;24.49;100.00;100844.69;4989255;28;20093;-48
2023/09/17 09:19:04;;;;;;;21.00;6.40;;;;;;;24.48;100.00;100848.81;4986537;28;20050;-51
2023/09/17 09:21:31;;;;;;;10.55;5.60;;;;;;;24.51;100.00;100853.50;4993786;28;20135;-50
2023/09/17 09:23:57;;;;;;;11.98;5.82;;;;;;;24.52;100.00;100848.56;4984579;28;20046;-46
2023/09/17 09:26:36;;;;;;;12.38;5.75;;;;;;;24.57;100.00;100842.91;4986738;28;20054;-45
2023/09/17 09:29:04;;;;;;;9.65;5.60;;;;;;;24.58;100.00;100850.16;4987414;28;20054;-45
2023/09/17 09:31:31;;;;;;;11.10;5.35;;;;;;;24.51;100.00;100841.34;4990821;28;20065;-49
2023/09/17 09:34:02;;;;;;;12.07;5.30;;;;;;;24.55;100.00;100850.38;4990150;28;20050;-46
2023/09/17 09:36:32;;;;;;;11.32;5.15;;;;;;;24.51;100.00;100856.34;4990900;28;20101;-48
2023/09/17 09:39:01;;;;;;;10.90;5.30;;;;;;;24.46;100.00;100854.22;4985338;28;20050;-50
2023/09/17 09:41:29;;;;;;;9.35;4.75;;;;;;;24.54;100.00;100855.31;4980931;28;20073;-50
2023/09/17 09:43:56;;;;;;;11.25;4.68;;;;;;;24.53;100.00;100855.81;4990256;28;20141;-50
2023/09/17 09:46:28;;;;;;;11.00;5.30;;;;;;;24.55;100.00;100858.91;5003721;28;20085;-47
2023/09/17 09:49:00;;;;;;;8.68;4.78;;;;;;;24.39;100.00;100855.50;4982703;28;20085;-48
2023/09/17 09:51:29;;;;;;;9.98;4.60;;;;;;;24.42;100.00;100851.66;4991781;28;20050;-46
2023/09/17 09:53:56;;;;;;;9.68;4.70;;;;;;;24.44;100.00;100853.97;4988809;28;20309;-49
2023/09/17 09:56:30;;;;;;;9.30;5.03;;;;;;;24.43;100.00;100846.72;4985342;28;20145;-46
2023/09/17 09:58:58;;;;;;;11.43;5.00;;;;;;;24.44;100.00;100848.28;4998424;28;20049;-50
2023/09/17 10:01:26;;;;;;;12.20;5.10;;;;;;;24.42;100.00;100856.53;4994254;28;20070;-48
2023/09/17 10:03:59;;;;;;;14.23;5.28;;;;;;;24.46;100.00;100862.00;4992114;28;20105;-45
2023/09/17 10:06:26;;;;;;;7.43;4.40;;;;;;;24.43;100.00;100850.34;4990982;28;20551;-45
2023/09/17 10:08:53;;;;;;;8.57;4.65;;;;;;;24.46;100.00;100851.38;4994634;28;20067;-48
2023/09/17 10:11:22;;;;;;;10.63;4.90;;;;;;;24.41;100.00;100852.91;5004002;28;20046;-50
2023/09/17 10:13:52;;;;;;;10.77;5.10;;;;;;;24.45;100.00;100858.38;4998641;28;20096;-48
2023/09/17 10:16:20;;;;;;;8.20;4.75;;;;;;;24.45;100.00;100849.84;4999948;28;20074;-48
2023/09/17 10:18:48;;;;;;;10.23;4.38;;;;;;;24.48;100.00;100853.72;4999952;28;20049;-45
2023/09/17 10:21:16;;;;;;;9.05;5.20;;;;;;;24.47;100.00;100849.34;4989525;28;20051;-50
2023/09/17 10:23:44;;;;;;;10.63;4.90;;;;;;;24.48;100.00;100849.59;4988024;28;20070;-47
2023/09/17 10:26:11;;;;;;;11.13;5.15;;;;;;;24.44;100.00;100851.91;4989988;28;20082;-48
2023/09/17 10:28:38;;;;;;;10.30;5.05;;;;;;;24.43;100.00;100847.50;4988837;28;20669;-45
2023/09/17 10:31:07;;;;;;;10.85;5.20;;;;;;;24.52;100.00;100840.81;5000072;28;20049;-47
2023/09/17 10:33:36;;;;;;;9.20;4.40;;;;;;;24.55;100.00;100848.34;4998675;28;20062;-46
2023/09/17 10:36:05;;;;;;;8.85;4.65;;;;;;;24.55;100.00;100831.28;4998865;28;20104;-45
2023/09/17 10:38:35;;;;;;;6.80;4.28;;;;;;;24.55;100.00;100836.97;5005557;28;20133;-45
2023/09/17 10:41:05;;;;;;;9.02;5.05;;;;;;;24.56;100.00;100832.81;4984279;28;20081;-46
2023/09/17 10:43:35;;;;;;;17.60;8.10;;;;;;;24.54;100.00;100826.91;4985005;28;20133;-46
2023/09/17 10:46:03;;;;;;;25.63;12.98;;;;;;;24.59;100.00;100823.28;4984938;28;20524;-51
2023/09/17 10:48:32;;;;;;;31.48;17.52;;;;;;;24.61;100.00;100825.63;4984707;28;20491;-51
2023/09/17 10:50:59;;;;;;;46.13;26.02;;;;;;;24.64;100.00;100824.59;4987390;28;20068;-46
2023/09/17 10:53:26;;;;;;;53.35;31.50;;;;;;;24.66;100.00;100819.94;4986602;28;20402;-50
2023/09/17 10:56:03;;;;;;;54.67;30.25;;;;;;;24.69;100.00;100830.28;4988613;28;20531;-47
2023/09/17 10:58:37;;;;;;;62.38;35.75;;;;;;;24.73;100.00;100830.06;4988724;28;20544;-51
2023/09/17 11:01:07;;;;;;;48.28;32.10;;;;;;;24.73;100.00;100830.81;4991877;28;20046;-46
2023/09/17 11:03:37;;;;;;;51.95;29.63;;;;;;;24.73;100.00;100816.59;4986621;28;20050;-49
2023/09/17 11:06:13;;;;;;;53.50;30.77;;;;;;;24.77;100.00;100813.50;4998095;28;20080;-46
2023/09/17 11:08:45;;;;;;;46.17;27.58;;;;;;;24.68;100.00;100822.28;4985308;28;20856;-46